createdAt,value
2022-09-07T00:00:44.366Z,19.57
2022-09-07T00:01:44.375Z,19.6
2022-09-07T00:02:44.637Z,19.44
2022-09-07T00:03:44.391Z,19.45
2022-09-07T00:04:44.648Z,19.37
2022-09-07T00:05:44.379Z,19.37
2022-09-07T00:06:44.222Z,19.41
2022-09-07T00:07:47.170Z,19.34
2022-09-07T00:08:44.414Z,19.26
2022-09-07T00:09:44.387Z,19.32
2022-09-07T00:10:44.389Z,19.37
2022-09-07T00:11:44.388Z,19.35
2022-09-07T00:12:44.387Z,19.39
2022-09-07T00:13:44.405Z,19.41
2022-09-07T00:14:44.391Z,19.42
2022-09-07T00:15:44.537Z,19.49
2022-09-07T00:16:44.588Z,19.41
2022-09-07T00:17:44.416Z,19.45
2022-09-07T00:18:49.812Z,19.47
2022-09-07T00:19:44.407Z,19.45
2022-09-07T00:20:44.395Z,19.44
2022-09-07T00:21:44.430Z,19.41
2022-09-07T00:22:44.415Z,19.41
2022-09-07T00:23:44.415Z,19.32
2022-09-07T00:24:44.409Z,19.27
2022-09-07T00:25:44.412Z,19.32
2022-09-07T00:26:44.406Z,19.44
2022-09-07T00:27:44.416Z,19.47
2022-09-07T00:28:44.427Z,19.44
2022-09-07T00:29:47.434Z,19.35
2022-09-07T00:30:44.431Z,19.41
2022-09-07T00:31:44.752Z,19.39
2022-09-07T00:32:44.425Z,19.45
2022-09-07T00:33:44.439Z,19.37
2022-09-07T00:34:47.429Z,19.34
2022-09-07T00:35:44.436Z,19.27
2022-09-07T00:36:44.432Z,19.37
2022-09-07T00:37:44.426Z,19.37
2022-09-07T00:38:44.452Z,19.27
2022-09-07T00:39:44.571Z,19.23
2022-09-07T00:40:44.426Z,19.27
2022-09-07T00:41:44.441Z,19.17
2022-09-07T00:42:44.274Z,19.19
2022-09-07T00:43:44.456Z,19.23
2022-09-07T00:44:44.459Z,19.26
2022-09-07T00:45:44.447Z,19.16
2022-09-07T00:46:44.657Z,19.23
2022-09-07T00:47:44.460Z,19.24
2022-09-07T00:48:44.475Z,19.29
2022-09-07T00:49:44.447Z,19.32
2022-09-07T00:50:44.464Z,19.32
2022-09-07T00:51:44.465Z,19.39
2022-09-07T00:52:44.470Z,19.29
2022-09-07T00:53:44.475Z,19.29
2022-09-07T00:54:44.457Z,19.22
2022-09-07T00:55:44.464Z,19.22
2022-09-07T00:56:44.467Z,19.3
2022-09-07T00:57:44.468Z,19.3
2022-09-07T00:58:44.485Z,19.35
2022-09-07T00:59:44.466Z,19.37
2022-09-07T01:00:44.476Z,19.37
2022-09-07T01:01:47.642Z,19.37
2022-09-07T01:02:45.036Z,19.39
2022-09-07T01:03:44.493Z,19.3
2022-09-07T01:04:44.484Z,19.3
2022-09-07T01:05:44.472Z,19.23
2022-09-07T01:06:44.485Z,19.29
2022-09-07T01:07:44.478Z,19.3
2022-09-07T01:08:44.508Z,19.27
2022-09-07T01:09:44.487Z,19.29
2022-09-07T01:10:44.487Z,19.27
2022-09-07T01:11:44.498Z,19.19
2022-09-07T01:12:47.354Z,19.15
2022-09-07T01:13:44.521Z,19.01
2022-09-07T01:14:44.522Z,19.11
2022-09-07T01:15:44.672Z,19.05
2022-09-07T01:16:44.503Z,18.98
2022-09-07T01:17:47.523Z,18.92
2022-09-07T01:18:44.363Z,19.05
2022-09-07T01:19:44.499Z,19.07
2022-09-07T01:20:44.503Z,19.04
2022-09-07T01:21:44.511Z,19.04
2022-09-07T01:22:44.353Z,18.92
2022-09-07T01:23:47.374Z,18.97
2022-09-07T01:24:44.354Z,19.04
2022-09-07T01:25:44.514Z,18.98
2022-09-07T01:26:44.518Z,18.92
2022-09-07T01:27:44.527Z,18.91
2022-09-07T01:28:46.136Z,18.91
2022-09-07T01:29:44.535Z,18.89
2022-09-07T01:30:44.643Z,18.94
2022-09-07T01:31:44.527Z,18.94
2022-09-07T01:32:44.540Z,18.94
2022-09-07T01:33:44.554Z,18.91
2022-09-07T01:34:44.533Z,18.96
2022-09-07T01:35:44.528Z,18.96
2022-09-07T01:36:44.541Z,18.85
2022-09-07T01:37:44.549Z,18.83
2022-09-07T01:38:44.561Z,18.86
2022-09-07T01:39:47.918Z,18.94
2022-09-07T01:40:44.387Z,18.86
2022-09-07T01:41:44.537Z,18.89
2022-09-07T01:42:44.542Z,18.89
2022-09-07T01:43:44.584Z,18.97
2022-09-07T01:44:44.555Z,18.92
2022-09-07T01:45:44.562Z,18.88
2022-09-07T01:46:44.900Z,18.98
2022-09-07T01:47:44.562Z,19
2022-09-07T01:48:44.580Z,18.96
2022-09-07T01:49:44.566Z,18.97
2022-09-07T01:50:47.543Z,18.92
2022-09-07T01:51:44.558Z,18.94
2022-09-07T01:52:44.561Z,18.83
2022-09-07T01:53:44.583Z,18.81
2022-09-07T01:54:44.574Z,18.91
2022-09-07T01:55:44.570Z,18.88
2022-09-07T01:56:44.565Z,18.78
2022-09-07T01:57:44.571Z,18.92
2022-09-07T01:58:44.606Z,18.78
2022-09-07T01:59:44.576Z,18.79
2022-09-07T02:00:44.573Z,18.63
2022-09-07T02:01:48.101Z,18.78
2022-09-07T02:02:44.832Z,18.78
2022-09-07T02:03:44.599Z,18.64
2022-09-07T02:04:44.587Z,18.66
2022-09-07T02:05:44.424Z,18.74
2022-09-07T02:06:44.596Z,18.76
2022-09-07T02:07:44.588Z,18.7
2022-09-07T02:08:44.629Z,18.67
2022-09-07T02:09:44.589Z,18.74
2022-09-07T02:10:44.601Z,18.57
2022-09-07T02:11:44.598Z,18.6
2022-09-07T02:12:47.660Z,18.6
2022-09-07T02:13:44.618Z,18.58
2022-09-07T02:14:46.489Z,18.6
2022-09-07T02:15:44.913Z,18.48
2022-09-07T02:16:44.605Z,18.45
2022-09-07T02:17:44.610Z,18.52
2022-09-07T02:18:44.625Z,18.48
2022-09-07T02:19:44.452Z,18.55
2022-09-07T02:20:44.455Z,18.57
2022-09-07T02:21:44.641Z,18.6
2022-09-07T02:22:44.625Z,18.51
2022-09-07T02:23:47.698Z,18.52
2022-09-07T02:24:44.628Z,18.53
2022-09-07T02:25:44.616Z,18.49
2022-09-07T02:26:44.482Z,18.39
2022-09-07T02:27:44.629Z,18.55
2022-09-07T02:28:44.650Z,18.37
2022-09-07T02:29:44.628Z,18.34
2022-09-07T02:30:44.974Z,18.23
2022-09-07T02:31:44.470Z,18.33
2022-09-07T02:32:44.634Z,18.36
2022-09-07T02:33:44.662Z,18.41
2022-09-07T02:34:47.413Z,18.45
2022-09-07T02:35:44.647Z,18.45
2022-09-07T02:36:44.638Z,18.49
2022-09-07T02:37:44.647Z,18.45
2022-09-07T02:38:44.505Z,18.41
2022-09-07T02:39:44.845Z,18.43
2022-09-07T02:40:44.645Z,18.42
2022-09-07T02:41:44.670Z,18.43
2022-09-07T02:42:44.671Z,18.37
2022-09-07T02:43:44.700Z,18.28
2022-09-07T02:44:44.663Z,18.24
2022-09-07T02:45:47.582Z,18.3
2022-09-07T02:46:44.928Z,18.3
2022-09-07T02:47:44.663Z,18.27
2022-09-07T02:48:44.675Z,18.28
2022-09-07T02:49:44.666Z,18.33
2022-09-07T02:50:44.672Z,18.39
2022-09-07T02:51:44.673Z,18.3
2022-09-07T02:52:44.691Z,18.23
2022-09-07T02:53:44.691Z,18.26
2022-09-07T02:54:44.677Z,18.26
2022-09-07T02:55:44.701Z,18.06
2022-09-07T02:56:47.483Z,18.12
2022-09-07T02:57:44.684Z,18.08
2022-09-07T02:58:44.699Z,18.12
2022-09-07T02:59:44.691Z,18.23
2022-09-07T03:00:44.683Z,18.19
2022-09-07T03:01:47.995Z,18.12
2022-09-07T03:02:44.951Z,18.21
2022-09-07T03:03:44.550Z,18.23
2022-09-07T03:04:44.695Z,18.12
2022-09-07T03:05:44.705Z,18.16
2022-09-07T03:06:44.696Z,18.05
2022-09-07T03:07:48.753Z,18.06
2022-09-07T03:08:44.726Z,18.24
2022-09-07T03:09:44.697Z,18.24
2022-09-07T03:10:44.694Z,18.23
2022-09-07T03:11:44.706Z,18.37
2022-09-07T03:12:44.703Z,18.36
2022-09-07T03:13:44.726Z,18.37
2022-09-07T03:14:44.710Z,18.39
2022-09-07T03:15:44.920Z,18.36
2022-09-07T03:16:44.710Z,18.21
2022-09-07T03:17:44.707Z,18.3
2022-09-07T03:18:44.738Z,18.28
2022-09-07T03:19:44.716Z,18.23
2022-09-07T03:20:44.711Z,18.33
2022-09-07T03:21:44.719Z,18.3
2022-09-07T03:22:44.723Z,18.33
2022-09-07T03:23:46.869Z,18.28
2022-09-07T03:24:44.735Z,18.33
2022-09-07T03:25:44.720Z,18.24
2022-09-07T03:26:44.737Z,18.33
2022-09-07T03:27:44.734Z,18.34
2022-09-07T03:28:47.835Z,18.41
2022-09-07T03:29:46.628Z,18.31
2022-09-07T03:30:44.901Z,18.43
2022-09-07T03:31:44.740Z,18.42
2022-09-07T03:32:44.742Z,18.43
2022-09-07T03:33:44.759Z,18.27
2022-09-07T03:34:44.744Z,18.41
2022-09-07T03:35:44.754Z,18.39
2022-09-07T03:36:44.754Z,18.36
2022-09-07T03:37:44.759Z,18.43
2022-09-07T03:38:44.777Z,18.48
2022-09-07T03:39:47.936Z,18.41
2022-09-07T03:40:44.753Z,18.39
2022-09-07T03:41:44.775Z,18.43
2022-09-07T03:42:44.783Z,18.39
2022-09-07T03:43:44.770Z,18.48
2022-09-07T03:44:47.841Z,18.42
2022-09-07T03:45:44.969Z,18.48
2022-09-07T03:46:44.768Z,18.37
2022-09-07T03:47:44.770Z,18.42
2022-09-07T03:48:44.827Z,18.43
2022-09-07T03:49:44.775Z,18.41
2022-09-07T03:50:47.541Z,18.42
2022-09-07T03:51:44.770Z,18.43
2022-09-07T03:52:44.771Z,18.39
2022-09-07T03:53:44.623Z,18.3
2022-09-07T03:54:44.782Z,18.27
2022-09-07T03:55:47.531Z,18.19
2022-09-07T03:56:44.774Z,18.3
2022-09-07T03:57:44.806Z,18.13
2022-09-07T03:58:44.824Z,18.05
2022-09-07T03:59:44.795Z,18.24
2022-09-07T04:00:44.793Z,18.12
2022-09-07T04:01:48.092Z,18.12
2022-09-07T04:02:45.008Z,18.13
2022-09-07T04:03:44.874Z,18.24
2022-09-07T04:04:44.795Z,18.18
2022-09-07T04:05:44.814Z,18.26
2022-09-07T04:06:47.569Z,18.26
2022-09-07T04:07:44.803Z,18.18
2022-09-07T04:08:44.840Z,18.24
2022-09-07T04:09:44.801Z,18.18
2022-09-07T04:10:44.807Z,18.21
2022-09-07T04:11:44.817Z,18.3
2022-09-07T04:12:44.817Z,18.33
2022-09-07T04:13:44.840Z,18.27
2022-09-07T04:14:44.849Z,18.21
2022-09-07T04:15:44.825Z,18.27
2022-09-07T04:16:45.063Z,18.28
2022-09-07T04:17:47.663Z,18.28
2022-09-07T04:18:44.848Z,18.24
2022-09-07T04:19:44.820Z,18.24
2022-09-07T04:20:44.829Z,18.11
2022-09-07T04:21:44.837Z,18.15
2022-09-07T04:22:44.829Z,18
2022-09-07T04:23:44.853Z,17.98
2022-09-07T04:24:44.832Z,18
2022-09-07T04:25:44.831Z,17.98
2022-09-07T04:26:44.837Z,18.12
2022-09-07T04:27:44.836Z,18.12
2022-09-07T04:28:47.668Z,18.18
2022-09-07T04:29:44.845Z,18.27
2022-09-07T04:30:45.098Z,18.31
2022-09-07T04:31:44.834Z,18.33
2022-09-07T04:32:44.850Z,18.36
2022-09-07T04:33:44.896Z,18.39
2022-09-07T04:34:44.840Z,18.33
2022-09-07T04:35:44.874Z,18.39
2022-09-07T04:36:44.854Z,18.39
2022-09-07T04:37:44.847Z,18.37
2022-09-07T04:38:44.890Z,18.33
2022-09-07T04:39:48.107Z,18.41
2022-09-07T04:40:44.857Z,18.45
2022-09-07T04:41:44.859Z,18.48
2022-09-07T04:42:44.861Z,18.52
2022-09-07T04:43:44.886Z,18.52
2022-09-07T04:44:44.866Z,18.53
2022-09-07T04:45:45.133Z,18.57
2022-09-07T04:46:44.881Z,18.53
2022-09-07T04:47:44.863Z,18.55
2022-09-07T04:48:44.889Z,18.53
2022-09-07T04:49:44.876Z,18.61
2022-09-07T04:50:47.935Z,18.63
2022-09-07T04:51:44.902Z,18.63
2022-09-07T04:52:44.879Z,18.63
2022-09-07T04:53:44.902Z,18.52
2022-09-07T04:54:44.882Z,18.52
2022-09-07T04:55:44.735Z,18.48
2022-09-07T04:56:44.759Z,18.52
2022-09-07T04:57:44.895Z,18.67
2022-09-07T04:58:44.920Z,18.67
2022-09-07T04:59:44.896Z,18.57
2022-09-07T05:00:44.896Z,18.57
2022-09-07T05:01:47.940Z,18.57
2022-09-07T05:02:45.211Z,18.7
2022-09-07T05:03:44.911Z,18.71
2022-09-07T05:04:44.905Z,18.76
2022-09-07T05:05:44.901Z,18.78
2022-09-07T05:06:44.910Z,18.79
2022-09-07T05:07:44.925Z,18.68
2022-09-07T05:08:44.933Z,18.68
2022-09-07T05:09:44.902Z,18.79
2022-09-07T05:10:44.938Z,18.79
2022-09-07T05:11:44.917Z,18.82
2022-09-07T05:12:47.919Z,18.78
2022-09-07T05:13:44.951Z,18.68
2022-09-07T05:14:44.938Z,18.71
2022-09-07T05:15:45.003Z,18.81
2022-09-07T05:16:45.298Z,18.88
2022-09-07T05:17:44.971Z,18.79
2022-09-07T05:18:44.942Z,18.85
2022-09-07T05:19:44.934Z,18.85
2022-09-07T05:20:44.946Z,18.86
2022-09-07T05:21:44.940Z,18.91
2022-09-07T05:22:44.944Z,19
2022-09-07T05:23:47.732Z,18.98
2022-09-07T05:24:44.933Z,19.04
2022-09-07T05:25:44.934Z,19.04
2022-09-07T05:26:44.935Z,19.04
2022-09-07T05:27:44.945Z,19.05
2022-09-07T05:28:45.336Z,19
2022-09-07T05:31:26.955Z,19.09
2022-09-07T05:32:29.757Z,19.04
2022-09-07T05:34:31.014Z,19.04
2022-09-07T05:35:40.965Z,18.92
2022-09-07T05:36:40.961Z,18.96
2022-09-07T05:37:40.943Z,18.96
2022-09-07T05:38:40.949Z,18.96
2022-09-07T05:39:41.688Z,19.01
2022-09-07T05:40:45.214Z,18.98
2022-09-07T05:41:40.956Z,19
2022-09-07T05:42:40.980Z,19.07
2022-09-07T05:44:53.128Z,18.94
2022-09-07T05:45:53.293Z,19.09
2022-09-07T05:46:53.092Z,19.04
2022-09-07T05:47:53.087Z,19
2022-09-07T05:48:53.089Z,19.01
2022-09-07T05:49:57.111Z,19.04
2022-09-07T05:50:56.228Z,19.07
2022-09-07T05:51:53.092Z,19.07
2022-09-07T05:52:53.171Z,19.11
2022-09-07T05:53:53.103Z,19.12
2022-09-07T05:54:56.596Z,19.15
2022-09-07T05:55:53.117Z,19.19
2022-09-07T05:56:53.105Z,19.17
2022-09-07T05:57:53.105Z,19.11
2022-09-07T05:58:53.110Z,19.15
2022-09-07T05:59:53.130Z,19.26
2022-09-07T06:00:53.119Z,19.22
2022-09-07T06:01:56.550Z,19.22
2022-09-07T06:02:53.595Z,19.26
2022-09-07T06:03:53.122Z,19.29
2022-09-07T06:04:53.138Z,19.39
2022-09-07T06:05:53.122Z,19.37
2022-09-07T06:07:25.318Z,19.34
2022-09-07T06:07:53.136Z,19.29
2022-09-07T06:08:53.148Z,19.37
2022-09-07T06:10:54.817Z,19.42
2022-09-07T06:11:04.220Z,19.44
2022-09-07T06:12:04.173Z,19.47
2022-09-07T06:13:04.183Z,19.45
2022-09-07T06:14:07.017Z,19.56
2022-09-07T06:15:04.203Z,19.56
2022-09-07T06:16:04.213Z,19.57
2022-09-07T06:17:04.285Z,19.63
2022-09-07T06:18:04.189Z,19.67
2022-09-07T06:19:04.232Z,19.64
2022-09-07T06:20:04.201Z,19.6
2022-09-07T06:21:04.188Z,19.72
2022-09-07T06:22:04.192Z,19.75
2022-09-07T06:23:04.027Z,19.79
2022-09-07T06:24:04.193Z,19.79
2022-09-07T06:25:07.329Z,19.78
2022-09-07T06:26:04.189Z,19.87
2022-09-07T06:27:04.208Z,19.79
2022-09-07T06:28:04.210Z,19.82
2022-09-07T06:29:04.235Z,19.92
2022-09-07T06:30:04.229Z,19.94
2022-09-07T06:31:04.244Z,20.04
2022-09-07T06:32:51.390Z,20.02
2022-09-07T06:33:04.046Z,20.11
2022-09-07T06:34:04.052Z,20.08
2022-09-07T06:35:04.241Z,20.29
2022-09-07T06:36:07.011Z,20.26
2022-09-07T06:37:04.232Z,20.3
2022-09-07T06:38:04.228Z,20.32
2022-09-07T06:39:04.223Z,20.36
2022-09-07T06:40:04.413Z,20.46
2022-09-07T06:42:00.602Z,20.48
2022-09-07T06:42:13.234Z,20.56
2022-09-07T06:43:10.223Z,20.52
2022-09-07T06:44:10.227Z,20.56
2022-09-07T06:45:10.240Z,20.6
2022-09-07T06:47:10.252Z,20.63
2022-09-07T06:47:19.449Z,20.7
2022-09-07T06:48:19.448Z,20.7
2022-09-07T06:49:19.453Z,20.63
2022-09-07T06:50:19.474Z,20.74
2022-09-07T06:51:19.449Z,20.75
2022-09-07T06:52:19.463Z,20.77
2022-09-07T06:53:50.430Z,20.82
2022-09-07T06:55:01.432Z,20.95
2022-09-07T06:56:00.780Z,20.92
2022-09-07T06:57:00.866Z,20.95
2022-09-07T06:58:00.730Z,20.95
2022-09-07T06:59:00.747Z,20.96
2022-09-07T07:00:00.754Z,20.93
2022-09-07T07:01:00.874Z,20.95
2022-09-07T07:02:00.740Z,21.03
2022-09-07T07:03:03.722Z,21.08
2022-09-07T07:04:00.749Z,21.08
2022-09-07T07:05:00.755Z,21.11
2022-09-07T07:06:00.762Z,21.15
2022-09-07T07:07:00.754Z,21.15
2022-09-07T07:08:00.754Z,21.2
2022-09-07T07:09:00.750Z,21.35
2022-09-07T07:10:00.761Z,21.47
2022-09-07T07:11:00.792Z,21.59
2022-09-07T07:12:00.785Z,21.69
2022-09-07T07:13:01.148Z,21.69
2022-09-07T07:14:03.803Z,21.75
2022-09-07T07:15:00.775Z,21.75
2022-09-07T07:16:00.951Z,21.77
2022-09-07T07:17:00.778Z,21.78
2022-09-07T07:18:23.031Z,21.85
2022-09-07T07:19:00.776Z,21.8
2022-09-07T07:20:00.783Z,21.78
2022-09-07T07:21:00.798Z,21.81
2022-09-07T07:22:48.894Z,21.85
2022-09-07T07:23:00.778Z,21.92
2022-09-07T07:24:02.993Z,21.99
2022-09-07T07:25:00.792Z,21.92
2022-09-07T07:26:00.801Z,21.99
2022-09-07T07:27:00.791Z,22.14
2022-09-07T07:29:11.533Z,22.26
2022-09-07T07:30:11.034Z,22.55
2022-09-07T07:31:18.515Z,22.91
2022-09-07T07:32:10.961Z,22.93
2022-09-07T07:33:11.927Z,22.89
2022-09-07T07:34:11.269Z,23.06
2022-09-07T07:35:10.978Z,23.44
2022-09-07T07:36:13.805Z,23.64
2022-09-07T07:37:10.997Z,23.76
2022-09-07T07:40:37.511Z,23.64
2022-09-07T07:42:01.608Z,23.94
2022-09-07T07:42:26.833Z,23.94
2022-09-07T07:43:33.483Z,24.16
2022-09-07T07:44:26.851Z,24.19
2022-09-07T07:45:57.074Z,24.59
2022-09-07T07:46:29.874Z,24.77
2022-09-07T07:47:26.852Z,24.61
2022-09-07T07:48:29.646Z,24.86
2022-09-07T07:49:26.927Z,25
2022-09-07T07:50:42.310Z,25.14
2022-09-07T07:51:27.059Z,25.24
2022-09-07T07:53:41.805Z,25.16
2022-09-07T07:53:55.130Z,25.24
2022-09-07T07:54:54.665Z,25.4
2022-09-07T07:55:54.681Z,25.12
2022-09-07T07:56:54.688Z,25.25
2022-09-07T07:57:54.665Z,25.58
2022-09-07T07:58:54.673Z,25.73
2022-09-07T07:59:54.665Z,25.93
2022-09-07T08:00:59.997Z,26.18
2022-09-07T08:01:58.063Z,26.41
2022-09-07T08:02:54.931Z,26.68
2022-09-07T08:03:54.677Z,27.05
2022-09-07T08:04:54.800Z,26.85
2022-09-07T08:05:54.674Z,26.96
2022-09-07T08:06:56.436Z,27.01
2022-09-07T08:07:54.687Z,27.26
2022-09-07T08:08:54.372Z,26.96
2022-09-07T08:09:54.396Z,27.19
2022-09-07T08:10:54.377Z,27.19
2022-09-07T08:11:54.400Z,27.43
2022-09-07T08:12:54.383Z,27.33
2022-09-07T08:13:54.424Z,27.53
2022-09-07T08:14:54.537Z,27.76
2022-09-07T08:15:54.744Z,27.97
2022-09-07T08:16:54.399Z,27.82
2022-09-07T08:17:57.467Z,27.93
2022-09-07T08:18:54.742Z,27.71
2022-09-07T08:19:54.714Z,27.82
2022-09-07T08:20:54.878Z,27.63
2022-09-07T08:21:54.402Z,27.25
2022-09-07T08:22:54.545Z,27
2022-09-07T08:23:54.726Z,27.47
2022-09-07T08:24:54.731Z,27.78
2022-09-07T08:25:54.718Z,27.73
2022-09-07T08:26:54.735Z,27.66
2022-09-07T08:27:54.714Z,27.47
2022-09-07T08:28:57.486Z,27.78
2022-09-07T08:29:54.735Z,27.88
2022-09-07T08:30:54.560Z,27.95
2022-09-07T08:31:55.002Z,28.4
2022-09-07T08:32:54.746Z,28.65
2022-09-07T08:33:54.732Z,28.4
2022-09-07T08:34:54.741Z,27.91
2022-09-07T08:35:54.738Z,27.93
2022-09-07T08:36:54.850Z,28.38
2022-09-07T08:37:54.592Z,28.18
2022-09-07T08:38:54.747Z,27.85
2022-09-07T08:39:57.803Z,27.34
2022-09-07T08:40:54.770Z,27.75
2022-09-07T08:41:54.779Z,27.86
2022-09-07T08:42:54.758Z,28.19
2022-09-07T08:43:54.748Z,28.34
2022-09-07T08:44:54.763Z,28.57
2022-09-07T08:45:54.905Z,28.82
2022-09-07T08:46:55.232Z,28.96
2022-09-07T08:47:54.772Z,29.24
2022-09-07T08:48:54.764Z,29.21
2022-09-07T08:49:54.767Z,29.27
2022-09-07T08:50:57.853Z,29.32
2022-09-07T08:51:54.804Z,29.55
2022-09-07T08:52:54.893Z,29.83
2022-09-07T08:53:54.785Z,29.83
2022-09-07T08:54:54.781Z,29.95
2022-09-07T08:55:54.782Z,29.95
2022-09-07T08:57:24.807Z,29.79
2022-09-07T08:57:54.776Z,29.76
2022-09-07T08:58:55.235Z,29.94
2022-09-07T08:59:54.785Z,29.87
2022-09-07T09:01:33.824Z,29.84
2022-09-07T09:02:42.158Z,30.13
2022-09-07T09:04:19.302Z,30.21
2022-09-07T09:05:19.062Z,30.11
2022-09-07T09:05:38.834Z,29.73
2022-09-07T09:06:36.289Z,29.59
2022-09-07T09:07:35.860Z,30.03
2022-09-07T09:08:35.916Z,30.23
2022-09-07T09:09:35.848Z,30.49
2022-09-07T09:10:38.618Z,30.16
2022-09-07T09:11:35.839Z,30.01
2022-09-07T09:12:41.358Z,30.1
2022-09-07T09:13:35.981Z,30.32
2022-09-07T09:14:35.774Z,30.13
2022-09-07T09:15:35.901Z,30.05
2022-09-07T09:16:41.646Z,29.96
2022-09-07T09:17:35.864Z,29.94
2022-09-07T09:18:35.961Z,30.14
2022-09-07T09:19:35.851Z,30.16
2022-09-07T09:20:35.683Z,29.87
2022-09-07T09:21:38.563Z,30.01
2022-09-07T09:22:35.873Z,30.01
2022-09-07T09:23:35.852Z,30.11
2022-09-07T09:24:35.942Z,30.35
2022-09-07T09:25:35.871Z,30.43
2022-09-07T09:26:35.863Z,30.54
2022-09-07T09:27:38.723Z,30.39
2022-09-07T09:28:37.913Z,30.77
2022-09-07T09:29:35.874Z,30.59
2022-09-07T09:30:35.882Z,30.26
2022-09-07T09:31:36.289Z,30.27
2022-09-07T09:32:37.531Z,30.29
2022-09-07T09:33:35.991Z,30.54
2022-09-07T09:34:39.616Z,30.62
2022-09-07T09:35:35.889Z,30.81
2022-09-07T09:36:35.909Z,30.74
2022-09-07T09:37:35.938Z,30.95
2022-09-07T09:38:39.165Z,30.31
2022-09-07T09:39:36.166Z,30.26
2022-09-07T09:40:36.061Z,29.69
2022-09-07T09:41:35.890Z,30.18
2022-09-07T09:42:35.936Z,30.58
2022-09-07T09:43:38.695Z,30.2
2022-09-07T09:44:35.901Z,30.7
2022-09-07T09:46:16.746Z,30.71
2022-09-07T09:46:36.163Z,30.86
2022-09-07T09:47:36.661Z,30.93
2022-09-07T09:48:36.038Z,30.77
2022-09-07T09:49:35.920Z,30.56
2022-09-07T09:52:56.654Z,30.49
2022-09-07T09:53:54.326Z,30.18
2022-09-07T09:54:55.821Z,30.13
2022-09-07T09:55:54.396Z,30.69
2022-09-07T09:56:54.317Z,30.44
2022-09-07T10:00:30.206Z,29.76
2022-09-07T10:01:31.497Z,29.73
2022-09-07T10:03:58.157Z,29.2
2022-09-07T10:04:57.141Z,29.53
2022-09-07T10:05:57.091Z,29.39
2022-09-07T10:06:57.076Z,29.16
2022-09-07T10:07:57.099Z,28.77
2022-09-07T10:08:57.111Z,28.77
2022-09-07T10:09:57.069Z,28.84
2022-09-07T10:10:57.171Z,28.8
2022-09-07T10:12:13.378Z,28.96
2022-09-07T10:12:57.088Z,29.2
2022-09-07T10:13:57.131Z,29.12
2022-09-07T10:14:57.176Z,28.86
2022-09-07T10:15:57.288Z,28.93
2022-09-07T10:16:58.078Z,29.15
2022-09-07T10:17:57.149Z,29.22
2022-09-07T10:18:57.121Z,29.27
2022-09-07T10:19:57.340Z,29.34
2022-09-07T10:20:57.105Z,29.42
2022-09-07T10:21:57.108Z,29.73
2022-09-07T10:22:57.115Z,29.98
2022-09-07T10:23:57.160Z,29.94
2022-09-07T10:24:57.106Z,29.83
2022-09-07T10:25:57.116Z,30.17
2022-09-07T10:26:57.401Z,30.02
2022-09-07T10:27:57.109Z,30.01
2022-09-07T10:29:14.227Z,30.08
2022-09-07T10:29:57.117Z,30.44
2022-09-07T10:30:57.268Z,30.06
2022-09-07T10:31:57.136Z,30.51
2022-09-07T10:32:57.128Z,30.77
2022-09-07T10:34:28.634Z,30.76
2022-09-07T10:34:57.138Z,30.71
2022-09-07T10:35:57.130Z,30.36
2022-09-07T10:36:57.130Z,30.32
2022-09-07T10:37:57.143Z,30.11
2022-09-07T10:38:57.151Z,29.98
2022-09-07T10:40:03.246Z,30.31
2022-09-07T10:40:57.141Z,30.52
2022-09-07T10:41:57.142Z,29.99
2022-09-07T10:43:27.337Z,30.11
2022-09-07T10:43:57.174Z,30.1
2022-09-07T10:44:57.179Z,30.1
2022-09-07T10:45:57.279Z,30.23
2022-09-07T10:47:04.838Z,30.14
2022-09-07T10:47:57.158Z,29.83
2022-09-07T10:48:57.184Z,29.67
2022-09-07T10:50:27.266Z,30.21
2022-09-07T10:51:01.431Z,30.16
2022-09-07T10:51:57.167Z,30.21
2022-09-07T10:52:57.168Z,30.58
2022-09-07T10:54:35.392Z,30.58
2022-09-07T10:54:57.382Z,30.59
2022-09-07T10:55:57.179Z,30.8
2022-09-07T10:56:57.179Z,30.91
2022-09-07T10:57:57.204Z,30.78
2022-09-07T10:59:12.725Z,30.43
2022-09-07T11:00:13.802Z,29.96
2022-09-07T11:00:57.184Z,30.2
2022-09-07T11:02:00.077Z,30.31
2022-09-07T11:03:28.280Z,30.01
2022-09-07T11:03:57.445Z,30.13
2022-09-07T11:04:57.183Z,30.39
2022-09-07T11:05:57.206Z,30.33
2022-09-07T11:07:00.257Z,30.29
2022-09-07T11:07:57.194Z,30.08
2022-09-07T11:09:27.222Z,30.14
2022-09-07T11:09:57.191Z,30.03
2022-09-07T11:10:57.204Z,30.21
2022-09-07T11:12:12.748Z,29.96
2022-09-07T11:12:59.975Z,29.9
2022-09-07T11:14:17.195Z,30.27
2022-09-07T11:14:57.283Z,30.43
2022-09-07T11:15:57.448Z,30.7
2022-09-07T11:16:57.579Z,30.46
2022-09-07T11:18:00.222Z,30.67
2022-09-07T11:19:38.028Z,30.81
2022-09-07T11:19:57.499Z,31.02
2022-09-07T11:20:57.382Z,31.13
2022-09-07T11:22:04.305Z,31.1
2022-09-07T11:22:57.233Z,31.15
2022-09-07T11:24:00.562Z,30.69
2022-09-07T11:25:34.590Z,30.7
2022-09-07T11:25:57.218Z,30.65
2022-09-07T11:26:57.229Z,30.73
2022-09-07T11:27:57.232Z,30.55
2022-09-07T11:29:32.100Z,30.27
2022-09-07T11:29:57.231Z,29.9
2022-09-07T11:31:03.077Z,30.02
2022-09-07T11:31:57.251Z,30.03
2022-09-07T11:32:57.239Z,30.01
2022-09-07T11:34:27.578Z,30.26
2022-09-07T11:35:00.131Z,30.38
2022-09-07T11:35:57.251Z,30.62
2022-09-07T11:36:57.241Z,30.77
2022-09-07T11:37:57.252Z,30.48
2022-09-07T11:38:57.249Z,30.63
2022-09-07T11:40:00.775Z,30.69
2022-09-07T11:40:57.254Z,30.85
2022-09-07T11:41:57.324Z,31.04
2022-09-07T11:42:57.277Z,31.17
2022-09-07T11:43:57.326Z,31.1
2022-09-07T11:44:57.555Z,31.11
2022-09-07T11:45:57.562Z,31.14
2022-09-07T11:46:57.321Z,31.25
2022-09-07T11:47:57.287Z,31.17
2022-09-07T11:48:57.289Z,31.14
2022-09-07T11:50:03.051Z,31.11
2022-09-07T11:51:00.077Z,31.29
2022-09-07T11:51:58.699Z,31.25
2022-09-07T11:52:58.542Z,31.04
2022-09-07T11:53:57.283Z,31.08
2022-09-07T11:54:57.430Z,31.41
2022-09-07T11:55:57.298Z,31.25
2022-09-07T11:56:57.290Z,31
2022-09-07T11:58:00.277Z,30.83
2022-09-07T11:58:57.291Z,30.99
2022-09-07T11:59:57.315Z,31.15
2022-09-07T12:00:57.366Z,30.91
2022-09-07T12:02:00.117Z,30.8
2022-09-07T12:03:04.861Z,31.33
2022-09-07T12:03:57.710Z,31.32
2022-09-07T12:05:01.131Z,31.22
2022-09-07T12:05:57.311Z,30.92
2022-09-07T12:06:57.314Z,31.02
2022-09-07T12:07:57.311Z,30.88
2022-09-07T12:08:57.314Z,30.8
2022-09-07T12:09:57.358Z,30.76
2022-09-07T12:10:57.327Z,30.77
2022-09-07T12:11:57.314Z,30.93
2022-09-07T12:13:00.238Z,31.08
2022-09-07T12:13:57.329Z,31.29
2022-09-07T12:14:57.353Z,31.41
2022-09-07T12:15:57.585Z,31.48
2022-09-07T12:16:57.378Z,31.66
2022-09-07T12:17:57.322Z,31.6
2022-09-07T12:18:57.380Z,31.51
2022-09-07T12:19:57.345Z,31.35
2022-09-07T12:20:57.344Z,31.5
2022-09-07T12:21:57.328Z,31.59
2022-09-07T12:23:00.996Z,31.28
2022-09-07T12:23:57.351Z,31.57
2022-09-07T12:24:57.485Z,31.93
2022-09-07T12:25:57.455Z,31.73
2022-09-07T12:26:57.375Z,31.45
2022-09-07T12:27:57.349Z,31.52
2022-09-07T12:28:57.352Z,31.97
2022-09-07T12:29:57.372Z,31.85
2022-09-07T12:30:57.538Z,31.67
2022-09-07T12:32:59.375Z,31.44
2022-09-07T12:34:09.143Z,31.57
2022-09-07T12:35:12.584Z,31.63
2022-09-07T12:36:09.077Z,31.63
2022-09-07T12:37:14.911Z,31.62
2022-09-07T12:38:09.080Z,31.6
2022-09-07T12:39:09.082Z,31.9
2022-09-07T12:40:09.496Z,31.59
2022-09-07T12:41:09.099Z,31.9
2022-09-07T12:42:39.984Z,31.95
2022-09-07T12:43:14.625Z,31.93
2022-09-07T12:44:09.091Z,31.85
2022-09-07T12:45:09.115Z,32.01
2022-09-07T12:46:10.188Z,32.08
2022-09-07T12:47:09.093Z,32.11
2022-09-07T12:48:12.503Z,32.09
2022-09-07T12:49:09.131Z,31.97
2022-09-07T12:50:10.056Z,31.73
2022-09-07T12:51:09.182Z,31.77
2022-09-07T12:52:20.825Z,31.77
2022-09-07T12:53:09.326Z,32.02
2022-09-07T12:54:09.104Z,31.93
2022-09-07T12:55:32.960Z,31.73
2022-09-07T12:56:23.189Z,31.72
2022-09-07T12:57:38.455Z,31.07
2022-09-07T12:58:26.028Z,30.92
2022-09-07T12:59:30.760Z,30.83
2022-09-07T13:00:23.155Z,30.76
2022-09-07T13:01:23.539Z,30.74
2022-09-07T13:02:23.628Z,30.65
2022-09-07T13:03:54.395Z,30.55
2022-09-07T13:04:26.174Z,30.63
2022-09-07T13:05:23.184Z,30.83
2022-09-07T13:07:04.171Z,30.77
2022-09-07T13:07:23.204Z,30.76
2022-09-07T13:08:23.220Z,30.85
2022-09-07T13:09:25.931Z,30.77
2022-09-07T13:10:23.495Z,30.7
2022-09-07T13:11:23.190Z,30.58
2022-09-07T13:12:58.799Z,30.61
2022-09-07T13:14:06.369Z,30.59